Al-Wafra, Kuwait

5:25 PM AST on July 26, 2016 (GMT +0300)
Khairan | | Change Station

Elev -10 ft 28.67 °N, 48.38 °E | Updated 6 seconds ago

Clear
Clear
93.4 °F
Feels Like 118 °F
N
4.0
Wind Variable Wind from SE
Gusts 6.0 mph

Today
High -- | Low -- °F
--% Chance of Precip.
Yesterday
High -- | Low -- °F
Precip. -- in
Pressure 29.47 in
Visibility 3.7 miles
Clouds Clear
Heat Index 118 °F
Dew Point 83 °F
Humidity 71%
Rainfall 0.00 in
Snow Depth Not available.
5:06 AM 6:42 PM
Waning Gibbous, 54% visible
METAR OKBK 261400Z 11007KT 6000 SKC 42/16 Q0998 NOSIG
Pressure 29.47 in
Visibility 3.7 miles
Clouds Clear
Heat Index 118 °F
Dew Point 83 °F
Humidity 71%
Rainfall 0.00 in
Snow Depth Not available.
5:06 AM 6:42 PM
Waning Gibbous, 54% visible
METAR OKBK 261400Z 11007KT 6000 SKC 42/16 Q0998 NOSIG

10-Day Weather Forecast

No radar image for this location.
×

Almanac

Astronomy

Jul. 26, 2016 Rise Set
Actual Time
Civil Twilight
Nautical Twilight
Astronomical Twilight
Moon
Length of Visible Light
Length of Day
Tomorrow will be .
, % of the Moon is Illuminated

Today's Extremes

Country Highs Country Lows

Community

WunderPhotos

Upload Photos

1,927,590 photos uploaded!

WunderBlog® & News

Nearby

Air Quality

  Air Quality AQ Index Pollutant
Not available.

Snow Depth

Station Depth Elevation

Earthquake Activity

City Distance Mag. Time & Date
Minimum magnitude displayed is 2.5.

Coastal Water Temperatures

Place Temperature

Stations

Nearby Weather Stations

Station Location Temp. Windchill Dew Point Humidity Wind Precip. Elev Updated Type